Coral Topaz — 3ELB7 — position and weather

sailwx.info

Track history (hours):
 
Tides and Currents Weather Stations Pressure Air Temp Water Temp Dewpoint Dewpoint Depression Visibility Wind Speed Wind Dir Waves Ship Positions

Coral Topaz

Last reported at 2015-Apr-19 12:15 UTC. Time now 2015-Apr-19 14:11 UTC.
Position S 33°21' E 151°57'.

Length 225 m; draft 7.2 m.

Type: Ship. MMSI: 372904000.

Date/timePositionNaut miles runAvg speedWind from/ knotsBaromVisibWave heightAir tempDewpointWater temp
2015-Apr-19 12:15S 33°21' E 151°57'15 0.7
2015-Apr-18 13:31S 33°18' E 151°39'0 0.0
2015-Apr-18 12:31S 33°18' E 151°39'0 0.0
2015-Apr-18 11:31S 33°18' E 151°39'0 0.0
2015-Apr-18 10:31S 33°18' E 151°39'3 1.7
2015-Apr-18 08:33S 33°22' E 151°38'1212.1
2015-Apr-18 07:33S 33°15' E 151°51'2 1.5
2015-Apr-18 06:32S 33°15' E 151°53'1 1.4
2015-Apr-18 05:32S 33°15' E 151°54'1 1.4
2015-Apr-18 04:32S 33°14' E 151°56'1 1.3
2015-Apr-18 03:32S 33°13' E 151°57'1 1.4
2015-Apr-18 02:32S 33°13' E 151°59'2 1.7
2015-Apr-18 01:32S 33°11' E 152°00'2 1.7
2015-Apr-18 00:32S 33°10' E 152°02'2 1.6
2015-Apr-17 23:32S 33°10' E 152°03'2 1.9
2015-Apr-17 22:32S 33°09' E 152°05'3 2.6
2015-Apr-17 21:33S 33°11' E 152°05'1211.6
2015-Apr-17 20:33S 33°16' E 151°52'1711.9
2015-Apr-17 19:09S 33°26' E 151°36'2 1.0
2015-Apr-17 17:11S 33°26' E 151°38'1 0.7
2015-Apr-17 15:29S 33°26' E 151°40'21 1.1
2015-Apr-16 20:09S 33°10' E 151°56'712.4
2015-Apr-16 19:33S 33°08' E 152°04'1312.7
2015-Apr-16 18:33S 33°06' E 152°19'1211.6
2015-Apr-16 17:33S 33°01' E 152°32'1313.1
2015-Apr-16 16:33S 32°49' E 152°37'1313.0
2015-Apr-16 15:33S 32°36' E 152°42'1413.8
2015-Apr-16 14:33S 32°23' E 152°47'1413.5
2015-Apr-16 13:33S 32°10' E 152°53'1414.0
2015-Apr-16 12:33S 31°57' E 152°58'1515.4
2015-Apr-16 11:34S 31°43' E 153°04'1616.2
2015-Apr-16 10:33S 31°27' E 153°10'203 5.3
2015-Apr-14 20:32S 28°07' E 153°53'1313.1
2015-Apr-14 19:33S 27°55' E 153°53'1313.2
2015-Apr-14 18:33S 27°41' E 153°53'2613.1
2015-Apr-14 16:33S 27°15' E 153°54'1312.7
2015-Apr-14 15:33S 27°03' E 153°53'1313.3
2015-Apr-14 14:33S 26°49' E 153°53'3113.2
2015-Apr-14 12:11S 26°18' E 153°53'  
Track history (hours):
 
Tides and Currents Weather Stations Pressure Air Temp Water Temp Dewpoint Dewpoint Depression Visibility Wind Speed Wind Dir Waves Ship Positions

Coral Topaz

Last reported at 2015-Apr-19 12:15 UTC. Time now 2015-Apr-19 14:11 UTC.
Position S 33°21' E 151°57'.

Length 225 m; draft 7.2 m.

Type: Ship. MMSI: 372904000.

Date/timePositionNaut miles runAvg speedWind from/ knotsBaromVisibWave heightAir tempDewpointWater temp
2015-Apr-19 12:15S 33°21' E 151°57'15 0.7
2015-Apr-18 13:31S 33°18' E 151°39'0 0.0
2015-Apr-18 12:31S 33°18' E 151°39'0 0.0
2015-Apr-18 11:31S 33°18' E 151°39'0 0.0
2015-Apr-18 10:31S 33°18' E 151°39'3 1.7
2015-Apr-18 08:33S 33°22' E 151°38'1212.1
2015-Apr-18 07:33S 33°15' E 151°51'2 1.5
2015-Apr-18 06:32S 33°15' E 151°53'1 1.4
2015-Apr-18 05:32S 33°15' E 151°54'1 1.4
2015-Apr-18 04:32S 33°14' E 151°56'1 1.3
2015-Apr-18 03:32S 33°13' E 151°57'1 1.4
2015-Apr-18 02:32S 33°13' E 151°59'2 1.7
2015-Apr-18 01:32S 33°11' E 152°00'2 1.7
2015-Apr-18 00:32S 33°10' E 152°02'2 1.6
2015-Apr-17 23:32S 33°10' E 152°03'2 1.9
2015-Apr-17 22:32S 33°09' E 152°05'3 2.6
2015-Apr-17 21:33S 33°11' E 152°05'1211.6
2015-Apr-17 20:33S 33°16' E 151°52'1711.9
2015-Apr-17 19:09S 33°26' E 151°36'2 1.0
2015-Apr-17 17:11S 33°26' E 151°38'1 0.7
2015-Apr-17 15:29S 33°26' E 151°40'21 1.1
2015-Apr-16 20:09S 33°10' E 151°56'712.4
2015-Apr-16 19:33S 33°08' E 152°04'1312.7
2015-Apr-16 18:33S 33°06' E 152°19'1211.6
2015-Apr-16 17:33S 33°01' E 152°32'1313.1
2015-Apr-16 16:33S 32°49' E 152°37'1313.0
2015-Apr-16 15:33S 32°36' E 152°42'1413.8
2015-Apr-16 14:33S 32°23' E 152°47'1413.5
2015-Apr-16 13:33S 32°10' E 152°53'1414.0
2015-Apr-16 12:33S 31°57' E 152°58'1515.4
2015-Apr-16 11:34S 31°43' E 153°04'1616.2
2015-Apr-16 10:33S 31°27' E 153°10'203 5.3
2015-Apr-14 20:32S 28°07' E 153°53'1313.1
2015-Apr-14 19:33S 27°55' E 153°53'1313.2
2015-Apr-14 18:33S 27°41' E 153°53'2613.1
2015-Apr-14 16:33S 27°15' E 153°54'1312.7
2015-Apr-14 15:33S 27°03' E 153°53'1313.3
2015-Apr-14 14:33S 26°49' E 153°53'3113.2
2015-Apr-14 12:11S 26°18' E 153°53'  

Dump ship's entire track history